Time;durP1;ratioP1;P1;durP2;ratioP2;P2;SDS_P1;SDS_P2;PMS_P1;PMS_P2;Temp;Humidity;BMP_temperature;BMP_pressure;BME280_temperature;BME280_humidity;BME280_pressure;Samples;Min_cycle;Max_cycle;Signal;HPM_P1;HPM_P2
2021/09/21 00:01:25;;;;;;;38.58;19.05;;;4.00;99.90;;;;;;5096032;28;20036;-75
2021/09/21 00:03:50;;;;;;;40.85;20.45;;;4.10;99.90;;;;;;5089775;28;20024;-75
2021/09/21 00:06:16;;;;;;;40.22;21.00;;;4.10;99.90;;;;;;5094714;28;20542;-75
2021/09/21 00:08:42;;;;;;;33.83;18.02;;;4.10;99.90;;;;;;5091559;28;20366;-75
2021/09/21 00:11:09;;;;;;;35.20;16.98;;;4.20;99.90;;;;;;5088540;28;20043;-76
2021/09/21 00:13:35;;;;;;;28.38;16.00;;;4.10;99.90;;;;;;5082067;28;20020;-75
2021/09/21 00:16:01;;;;;;;25.58;14.98;;;4.10;99.90;;;;;;5075385;28;20016;-75
2021/09/21 00:18:27;;;;;;;23.17;13.95;;;4.10;99.90;;;;;;5079810;28;20065;-75
2021/09/21 00:20:53;;;;;;;25.15;13.18;;;4.10;99.90;;;;;;5094311;28;20122;-76
2021/09/21 00:23:19;;;;;;;22.90;13.48;;;4.10;99.90;;;;;;5092359;28;20043;-75
2021/09/21 00:25:45;;;;;;;22.83;12.73;;;4.10;99.90;;;;;;5095263;28;20470;-75
2021/09/21 00:28:11;;;;;;;30.98;17.13;;;4.10;99.90;;;;;;5092760;28;20051;-75
2021/09/21 00:30:44;;;;;;;33.45;15.95;;;4.10;99.90;;;;;;5094407;28;20016;-76
2021/09/21 00:33:16;;;;;;;28.15;14.98;;;4.00;99.90;;;;;;5093366;28;20028;-75
2021/09/21 00:35:42;;;;;;;34.00;14.73;;;4.00;99.90;;;;;;5095470;28;20485;-75
2021/09/21 00:38:08;;;;;;;28.90;15.02;;;4.00;99.90;;;;;;5089604;28;20057;-75
2021/09/21 00:40:33;;;;;;;25.95;14.95;;;4.00;99.90;;;;;;5094069;28;20028;-75
2021/09/21 00:43:03;;;;;;;32.47;17.27;;;4.00;99.90;;;;;;5092552;28;20069;-75
2021/09/21 00:45:31;;;;;;;46.28;21.63;;;4.00;99.90;;;;;;5095377;28;20066;-75
2021/09/21 00:47:57;;;;;;;44.67;20.42;;;4.00;99.90;;;;;;5087771;28;20077;-75
2021/09/21 00:50:25;;;;;;;51.88;21.80;;;4.00;99.90;;;;;;5091585;28;20467;-75
2021/09/21 00:52:52;;;;;;;37.42;19.65;;;4.00;99.90;;;;;;5093088;28;20115;-75
2021/09/21 00:55:18;;;;;;;53.53;21.33;;;3.90;99.90;;;;;;5095078;28;20382;-75
2021/09/21 00:57:44;;;;;;;58.22;23.92;;;3.90;99.90;;;;;;5092884;28;20016;-75
2021/09/21 01:00:14;;;;;;;52.63;22.25;;;3.90;99.90;;;;;;5090718;28;20081;-75
2021/09/21 01:02:41;;;;;;;44.50;22.45;;;3.80;99.90;;;;;;5093122;28;21246;-75
2021/09/21 01:05:07;;;;;;;47.58;21.25;;;3.80;99.90;;;;;;5090788;28;20484;-75
2021/09/21 01:07:37;;;;;;;37.42;21.40;;;3.80;99.90;;;;;;5090904;28;20032;-76
2021/09/21 01:10:05;;;;;;;42.13;19.73;;;3.70;99.90;;;;;;5074393;28;20025;-75
2021/09/21 01:12:30;;;;;;;48.90;20.17;;;3.70;99.90;;;;;;5074739;28;20024;-75
2021/09/21 01:14:57;;;;;;;44.10;19.30;;;3.60;99.90;;;;;;5092577;28;20016;-75
2021/09/21 01:17:23;;;;;;;36.22;18.38;;;3.60;99.90;;;;;;5092110;28;20389;-75
2021/09/21 01:19:48;;;;;;;33.67;17.38;;;3.60;99.90;;;;;;5090926;28;20035;-75
2021/09/21 01:22:14;;;;;;;36.03;17.23;;;3.60;99.90;;;;;;5093311;28;20481;-75
2021/09/21 01:24:40;;;;;;;36.10;17.83;;;3.60;99.90;;;;;;5093107;28;20020;-75
2021/09/21 01:27:05;;;;;;;28.75;15.85;;;3.60;99.90;;;;;;5090386;28;20386;-76
2021/09/21 01:29:31;;;;;;;31.92;16.42;;;3.60;99.90;;;;;;5089580;28;20065;-75
2021/09/21 01:31:57;;;;;;;24.70;12.73;;;3.60;99.90;;;;;;5093215;28;20023;-76
2021/09/21 01:34:22;;;;;;;27.05;14.32;;;3.60;99.90;;;;;;5077745;28;20066;-75
2021/09/21 01:36:48;;;;;;;30.90;14.65;;;3.60;99.90;;;;;;5087791;28;20525;-75
2021/09/21 01:39:14;;;;;;;28.35;13.15;;;3.60;99.90;;;;;;5089866;28;20036;-75
2021/09/21 01:41:40;;;;;;;34.67;13.85;;;3.60;99.90;;;;;;5092783;28;20032;-75
2021/09/21 01:44:06;;;;;;;27.42;13.73;;;3.60;99.90;;;;;;5090352;28;20381;-75
2021/09/21 01:46:31;;;;;;;34.53;15.07;;;3.60;99.90;;;;;;5094191;28;20021;-76
2021/09/21 01:48:57;;;;;;;28.33;14.10;;;3.60;99.90;;;;;;5085901;28;20487;-75
2021/09/21 01:51:35;;;;;;;39.95;15.57;;;3.60;99.90;;;;;;5092736;28;20051;-76
2021/09/21 01:59:11;;;;;;;62.25;24.27;;;3.60;99.90;;;;;;5084152;28;20389;-75
2021/09/21 02:01:37;;;;;;;45.28;21.08;;;3.60;99.90;;;;;;5092540;28;20032;-75
2021/09/21 02:04:07;;;;;;;60.97;23.30;;;3.60;99.90;;;;;;5089441;28;20439;-75
2021/09/21 02:06:35;;;;;;;82.35;26.80;;;3.60;99.90;;;;;;5093859;28;20071;-75
2021/09/21 02:09:03;;;;;;;193.50;61.03;;;3.60;99.90;;;;;;5088465;28;20036;-75
2021/09/21 02:11:28;;;;;;;139.93;41.45;;;3.60;99.90;;;;;;5088101;28;20512;-75
2021/09/21 02:13:57;;;;;;;69.32;24.42;;;3.50;99.90;;;;;;5082284;28;20021;-75
2021/09/21 02:16:27;;;;;;;46.55;17.13;;;3.40;99.90;;;;;;5085547;28;20394;-75
2021/09/21 02:18:53;;;;;;;55.00;15.73;;;3.40;99.90;;;;;;5085064;28;20111;-75
2021/09/21 02:21:19;;;;;;;24.23;12.05;;;3.30;99.90;;;;;;5092192;28;20448;-76
2021/09/21 02:23:46;;;;;;;35.42;15.50;;;3.30;99.90;;;;;;5092122;28;20020;-75
2021/09/21 02:26:12;;;;;;;39.28;17.88;;;3.40;99.90;;;;;;5091946;28;20049;-75
2021/09/21 02:28:38;;;;;;;47.38;19.70;;;3.40;99.90;;;;;;5090699;28;20093;-75
2021/09/21 02:31:04;;;;;;;51.40;22.15;;;3.40;99.90;;;;;;5092079;28;20554;-75
2021/09/21 02:33:29;;;;;;;63.25;26.13;;;3.50;99.90;;;;;;5088724;28;20031;-75
2021/09/21 02:35:55;;;;;;;49.55;21.23;;;3.60;99.90;;;;;;5092297;28;20024;-75
2021/09/21 02:38:21;;;;;;;45.72;19.17;;;3.60;99.90;;;;;;5091407;28;20389;-75
2021/09/21 02:40:47;;;;;;;46.20;20.63;;;3.70;99.90;;;;;;5092015;28;20043;-76
2021/09/21 02:43:13;;;;;;;44.60;19.33;;;3.70;99.90;;;;;;5085895;28;20016;-75
2021/09/21 02:45:38;;;;;;;37.60;18.27;;;3.70;99.90;;;;;;5091928;28;20031;-76
2021/09/21 02:48:04;;;;;;;33.78;17.02;;;3.80;99.90;;;;;;5083451;28;20017;-75
2021/09/21 02:50:30;;;;;;;33.10;16.08;;;3.90;99.90;;;;;;5091571;28;20024;-75
2021/09/21 02:52:56;;;;;;;29.77;15.00;;;3.90;99.90;;;;;;5091687;28;20485;-75
2021/09/21 02:55:22;;;;;;;33.33;16.33;;;4.00;99.90;;;;;;5091787;28;20028;-76
2021/09/21 02:57:48;;;;;;;41.45;18.17;;;4.00;99.90;;;;;;5087953;28;20031;-75
2021/09/21 03:00:19;;;;;;;32.67;16.50;;;3.90;99.90;;;;;;5091582;28;20401;-75
2021/09/21 03:02:45;;;;;;;32.67;15.60;;;3.90;99.90;;;;;;5088165;28;20017;-75
2021/09/21 03:05:16;;;;;;;31.48;16.48;;;4.00;99.90;;;;;;5092857;28;20016;-76
2021/09/21 03:07:50;;;;;;;29.85;15.68;;;4.00;99.90;;;;;;5087456;28;20023;-75
2021/09/21 03:10:27;;;;;;;29.58;14.85;;;3.90;99.90;;;;;;5094369;28;20020;-75
2021/09/21 03:18:06;;;;;;;45.15;19.83;;;4.00;99.90;;;;;;5092821;28;20114;-75
2021/09/21 03:20:32;;;;;;;47.55;19.15;;;4.00;99.90;;;;;;5093373;28;20024;-75
2021/09/21 03:22:57;;;;;;;24.83;14.07;;;4.00;99.90;;;;;;5094793;28;20038;-75
2021/09/21 03:25:23;;;;;;;24.73;12.70;;;4.00;99.90;;;;;;5096829;28;20028;-75
2021/09/21 03:27:49;;;;;;;22.73;12.90;;;4.10;99.90;;;;;;5092925;28;20020;-75
2021/09/21 03:30:15;;;;;;;23.02;12.48;;;4.10;99.90;;;;;;5096762;28;20028;-76
2021/09/21 03:32:41;;;;;;;26.27;14.25;;;4.00;99.90;;;;;;5094921;28;20024;-75
2021/09/21 03:35:08;;;;;;;22.42;13.95;;;4.10;99.90;;;;;;5095874;28;20024;-75
2021/09/21 03:37:34;;;;;;;21.58;12.57;;;4.10;99.90;;;;;;5093779;28;20043;-75
2021/09/21 03:40:01;;;;;;;21.20;14.57;;;4.10;99.90;;;;;;5074685;28;20016;-76
2021/09/21 03:42:26;;;;;;;28.92;14.25;;;4.10;99.90;;;;;;5074917;28;20094;-75
2021/09/21 03:44:52;;;;;;;24.00;11.75;;;4.10;99.90;;;;;;5093423;28;20477;-75
2021/09/21 03:47:18;;;;;;;25.65;14.48;;;4.10;99.90;;;;;;5095525;28;20042;-76
2021/09/21 03:49:44;;;;;;;25.85;14.73;;;4.10;99.90;;;;;;5093659;28;20012;-75
2021/09/21 03:52:10;;;;;;;25.85;14.77;;;4.00;99.90;;;;;;5095086;28;20111;-76
2021/09/21 03:54:36;;;;;;;24.58;13.57;;;4.00;99.90;;;;;;5107493;28;20028;-76
2021/09/21 03:57:02;;;;;;;23.83;13.73;;;3.90;99.90;;;;;;5075997;28;20028;-75
2021/09/21 03:59:27;;;;;;;23.40;14.52;;;3.90;99.90;;;;;;5092685;28;20473;-75
2021/09/21 04:01:53;;;;;;;21.38;13.10;;;3.90;99.90;;;;;;5085804;28;20032;-76
2021/09/21 04:04:19;;;;;;;25.02;14.25;;;3.90;99.90;;;;;;5089568;28;20020;-75
2021/09/21 04:06:46;;;;;;;24.60;13.77;;;3.90;99.90;;;;;;5094897;28;20386;-75
2021/09/21 04:09:12;;;;;;;24.85;13.15;;;3.90;99.90;;;;;;5090129;28;20016;-75
2021/09/21 04:11:38;;;;;;;20.88;13.02;;;3.90;99.90;;;;;;5094787;28;20020;-76
2021/09/21 04:14:04;;;;;;;21.83;12.38;;;3.90;99.90;;;;;;5091258;28;20020;-75
2021/09/21 04:16:30;;;;;;;21.45;13.35;;;3.90;99.90;;;;;;5096053;28;20020;-77
2021/09/21 04:18:57;;;;;;;130.68;40.40;;;4.00;99.90;;;;;;5093101;28;20035;-75
2021/09/21 04:21:23;;;;;;;146.85;43.03;;;4.00;99.90;;;;;;5094857;28;20061;-75
2021/09/21 04:23:49;;;;;;;154.77;44.00;;;3.90;99.90;;;;;;5093144;28;20035;-75
2021/09/21 04:26:15;;;;;;;170.27;52.53;;;3.90;99.90;;;;;;5094468;28;20389;-77
2021/09/21 04:28:41;;;;;;;225.57;61.30;;;3.90;99.90;;;;;;5092541;28;20492;-75
2021/09/21 04:31:10;;;;;;;341.15;93.15;;;3.90;99.90;;;;;;5094308;28;20085;-76
2021/09/21 04:33:42;;;;;;;286.00;78.72;;;3.80;99.90;;;;;;5090106;28;20012;-75
2021/09/21 04:36:10;;;;;;;276.55;73.65;;;3.80;99.90;;;;;;5094197;28;20063;-75
2021/09/21 04:38:38;;;;;;;166.60;56.83;;;3.80;99.90;;;;;;5089482;28;20528;-75
2021/09/21 04:41:04;;;;;;;156.70;46.45;;;3.80;99.90;;;;;;5095403;28;20493;-75
2021/09/21 04:43:31;;;;;;;209.02;59.10;;;3.80;99.90;;;;;;5086893;28;20031;-75
2021/09/21 04:45:57;;;;;;;327.13;88.43;;;3.70;99.90;;;;;;5095384;28;20099;-75
2021/09/21 04:48:23;;;;;;;209.07;63.42;;;3.70;99.90;;;;;;5093160;28;20427;-75
2021/09/21 04:50:49;;;;;;;207.80;59.83;;;3.70;99.90;;;;;;5093976;28;20110;-76
2021/09/21 04:53:14;;;;;;;182.30;53.17;;;3.70;99.90;;;;;;5088514;28;20115;-75
2021/09/21 04:55:41;;;;;;;228.23;61.28;;;3.60;99.90;;;;;;5093751;28;20067;-75
2021/09/21 04:58:06;;;;;;;163.25;52.47;;;3.70;99.90;;;;;;5089175;28;20103;-75
2021/09/21 05:00:32;;;;;;;89.03;30.70;;;3.70;99.90;;;;;;5093676;28;20525;-75
2021/09/21 05:02:58;;;;;;;65.15;26.58;;;3.70;99.90;;;;;;5086661;28;20032;-75
2021/09/21 05:05:24;;;;;;;77.18;30.38;;;3.70;99.90;;;;;;5078977;28;20492;-75
2021/09/21 05:07:50;;;;;;;66.03;30.42;;;3.70;99.90;;;;;;5092311;28;20052;-75
2021/09/21 05:10:16;;;;;;;61.20;19.73;;;3.70;99.90;;;;;;5093594;28;20434;-75
2021/09/21 05:12:43;;;;;;;31.23;14.63;;;3.70;99.90;;;;;;5089772;28;20016;-75
2021/09/21 05:15:09;;;;;;;43.47;14.90;;;3.70;99.90;;;;;;5093939;28;20099;-75
2021/09/21 05:17:35;;;;;;;25.23;11.95;;;3.70;99.90;;;;;;5089716;28;20016;-75
2021/09/21 05:20:01;;;;;;;41.88;16.23;;;3.70;99.90;;;;;;5094859;28;20104;-76
2021/09/21 05:22:27;;;;;;;38.50;14.77;;;3.70;99.90;;;;;;5093028;28;20099;-76
2021/09/21 05:24:52;;;;;;;27.67;12.40;;;3.70;99.90;;;;;;5087663;28;20063;-75
2021/09/21 05:27:18;;;;;;;29.65;13.77;;;3.70;99.90;;;;;;5093805;28;20020;-76
2021/09/21 05:29:43;;;;;;;45.17;13.07;;;3.70;99.90;;;;;;5092743;28;20054;-75
2021/09/21 05:32:09;;;;;;;55.33;15.00;;;3.70;99.90;;;;;;5093030;28;20393;-75
2021/09/21 05:34:35;;;;;;;23.40;13.75;;;3.70;99.90;;;;;;5088399;28;20031;-75
2021/09/21 05:37:01;;;;;;;24.02;13.13;;;3.70;99.90;;;;;;5094614;28;20031;-75
2021/09/21 05:39:27;;;;;;;23.23;12.45;;;3.70;99.90;;;;;;5089119;28;20102;-75
2021/09/21 05:41:52;;;;;;;21.38;13.05;;;3.80;99.90;;;;;;5094009;28;20157;-75
2021/09/21 05:44:18;;;;;;;23.90;13.30;;;3.80;99.90;;;;;;5088952;28;20223;-75
2021/09/21 05:46:44;;;;;;;26.63;15.63;;;3.90;99.90;;;;;;5094079;28;20103;-75
2021/09/21 05:49:10;;;;;;;27.88;16.77;;;4.00;99.90;;;;;;5079966;28;20020;-75
2021/09/21 05:51:35;;;;;;;27.65;19.33;;;4.10;99.90;;;;;;5085373;28;20118;-76
2021/09/21 05:54:01;;;;;;;27.77;17.05;;;4.20;99.90;;;;;;5083558;28;20016;-75
2021/09/21 05:56:27;;;;;;;34.45;19.23;;;4.30;99.90;;;;;;5092409;28;20034;-76
2021/09/21 05:58:52;;;;;;;33.83;18.70;;;4.40;99.90;;;;;;5090618;28;20035;-75
2021/09/21 06:01:18;;;;;;;31.38;18.60;;;4.40;99.90;;;;;;5093821;28;20544;-76
2021/09/21 06:03:44;;;;;;;34.55;18.00;;;4.50;99.90;;;;;;5092494;28;20020;-75
2021/09/21 06:06:09;;;;;;;29.20;17.33;;;4.60;99.90;;;;;;5093799;28;20069;-75
2021/09/21 06:08:35;;;;;;;30.40;18.40;;;4.60;99.90;;;;;;5088441;28;20358;-75
2021/09/21 06:11:00;;;;;;;35.80;19.42;;;4.70;99.90;;;;;;5093687;28;20024;-75
2021/09/21 06:13:26;;;;;;;38.83;22.35;;;4.90;99.90;;;;;;5086546;28;20016;-75
2021/09/21 06:15:52;;;;;;;39.35;22.35;;;5.00;99.90;;;;;;5081440;28;20028;-76
2021/09/21 06:18:18;;;;;;;46.65;27.83;;;5.10;99.90;;;;;;5082635;28;20016;-76
2021/09/21 06:20:46;;;;;;;52.05;30.83;;;5.20;99.90;;;;;;5093461;28;20063;-75
2021/09/21 06:23:12;;;;;;;51.30;29.17;;;5.20;99.90;;;;;;5091353;28;20111;-75
2021/09/21 06:25:38;;;;;;;44.72;27.20;;;5.30;99.90;;;;;;5092249;28;20055;-76
2021/09/21 06:28:05;;;;;;;42.25;23.63;;;5.40;99.90;;;;;;5089005;28;20021;-75
2021/09/21 06:30:31;;;;;;;40.33;23.67;;;5.40;99.90;;;;;;5084461;28;20016;-76
2021/09/21 06:32:56;;;;;;;39.30;23.58;;;5.60;99.90;;;;;;5087484;28;20031;-76
2021/09/21 06:35:22;;;;;;;38.08;22.75;;;5.70;99.90;;;;;;5081714;28;20543;-76
2021/09/21 06:37:48;;;;;;;35.80;22.15;;;5.80;99.90;;;;;;5086921;28;20042;-75
2021/09/21 06:40:14;;;;;;;34.60;22.33;;;5.90;99.90;;;;;;5092911;28;20024;-76
2021/09/21 06:42:43;;;;;;;35.05;20.98;;;6.00;99.90;;;;;;5090705;28;20016;-75
2021/09/21 06:45:13;;;;;;;39.08;22.20;;;6.00;99.90;;;;;;5091025;28;20031;-75
2021/09/21 06:47:38;;;;;;;33.72;19.92;;;6.10;99.90;;;;;;5091042;28;20107;-75
2021/09/21 06:50:05;;;;;;;37.78;22.75;;;6.30;99.90;;;;;;5091835;28;20111;-76
2021/09/21 06:52:30;;;;;;;32.95;19.45;;;6.40;99.90;;;;;;5092952;28;20020;-76
2021/09/21 06:54:57;;;;;;;31.20;20.00;;;6.50;99.90;;;;;;5091243;28;20069;-76
2021/09/21 06:57:23;;;;;;;37.03;20.98;;;6.60;99.90;;;;;;5093015;28;20047;-76
2021/09/21 06:59:49;;;;;;;33.72;21.55;;;6.80;99.90;;;;;;5092189;28;20107;-75
2021/09/21 07:02:15;;;;;;;29.80;18.35;;;7.10;99.90;;;;;;5092923;28;20465;-76
2021/09/21 07:04:41;;;;;;;33.45;18.83;;;7.20;99.90;;;;;;5090952;28;20020;-75
2021/09/21 07:07:06;;;;;;;27.90;17.17;;;7.40;99.90;;;;;;5091651;28;20016;-77
2021/09/21 07:09:32;;;;;;;34.95;19.33;;;7.50;99.90;;;;;;5092445;28;20024;-75
2021/09/21 07:11:58;;;;;;;28.77;18.10;;;7.70;99.90;;;;;;5092960;28;20035;-76
2021/09/21 07:14:24;;;;;;;30.27;17.30;;;8.00;99.90;;;;;;5092030;28;20020;-76
2021/09/21 07:16:49;;;;;;;25.90;17.40;;;8.20;99.90;;;;;;5092906;28;20020;-76
2021/09/21 07:19:18;;;;;;;28.20;16.33;;;8.40;99.90;;;;;;5092016;28;20050;-76
2021/09/21 07:21:47;;;;;;;24.70;15.73;;;8.60;99.90;;;;;;5092771;28;20077;-76
2021/09/21 07:24:14;;;;;;;25.23;14.63;;;8.80;99.90;;;;;;5090877;28;20059;-76
2021/09/21 07:26:41;;;;;;;22.55;13.30;;;9.00;99.90;;;;;;5092529;28;20028;-76
2021/09/21 07:29:07;;;;;;;20.98;12.35;;;9.00;99.90;;;;;;5091253;28;20031;-76
2021/09/21 07:31:32;;;;;;;21.75;13.43;;;9.20;99.90;;;;;;5091340;28;20465;-76
2021/09/21 07:33:58;;;;;;;19.70;12.23;;;9.30;99.90;;;;;;5091787;28;20039;-76
2021/09/21 07:36:23;;;;;;;18.35;11.90;;;9.40;99.90;;;;;;5091333;28;20020;-76
2021/09/21 07:38:49;;;;;;;18.20;12.25;;;9.60;99.90;;;;;;5090749;28;20040;-76
2021/09/21 07:41:15;;;;;;;23.77;11.98;;;9.80;99.90;;;;;;5092544;28;20126;-76
2021/09/21 07:43:43;;;;;;;17.65;10.13;;;9.80;99.90;;;;;;5091843;28;20021;-76
2021/09/21 07:46:09;;;;;;;18.95;10.65;;;9.90;99.90;;;;;;5092559;28;20019;-76
2021/09/21 07:48:34;;;;;;;15.38;10.45;;;9.90;99.90;;;;;;5091824;28;20024;-76
2021/09/21 07:51:00;;;;;;;15.35;9.98;;;9.80;99.90;;;;;;5091292;28;20024;-77
2021/09/21 07:53:26;;;;;;;13.02;9.98;;;9.70;99.90;;;;;;5091671;28;20016;-76
2021/09/21 07:55:51;;;;;;;15.48;9.43;;;9.70;99.90;;;;;;5091869;28;20054;-77
2021/09/21 07:58:18;;;;;;;15.40;10.15;;;9.60;99.90;;;;;;5095255;28;20060;-76
2021/09/21 08:00:44;;;;;;;15.70;10.25;;;9.70;99.90;;;;;;5096146;28;20101;-76
2021/09/21 08:03:10;;;;;;;14.55;8.77;;;9.70;99.90;;;;;;5094065;28;20508;-76
2021/09/21 08:05:36;;;;;;;13.48;9.80;;;9.80;99.90;;;;;;5095610;28;20130;-76
2021/09/21 08:08:01;;;;;;;15.52;9.57;;;9.80;99.90;;;;;;5095355;28;20062;-76
2021/09/21 08:10:27;;;;;;;15.82;9.65;;;9.80;99.90;;;;;;5096121;28;20496;-76
2021/09/21 08:12:53;;;;;;;14.27;9.63;;;9.70;99.90;;;;;;5095148;28;20031;-76
2021/09/21 08:15:19;;;;;;;18.77;10.43;;;9.80;99.90;;;;;;5094660;28;20024;-77
2021/09/21 08:17:45;;;;;;;15.93;9.13;;;10.00;99.90;;;;;;5094670;28;20028;-76
2021/09/21 08:20:12;;;;;;;16.17;10.18;;;10.20;99.90;;;;;;5094961;28;20024;-77
2021/09/21 08:22:38;;;;;;;15.45;9.45;;;10.40;99.90;;;;;;5093829;28;20366;-76
2021/09/21 08:25:06;;;;;;;13.10;8.98;;;10.50;99.90;;;;;;5094551;28;20041;-77
2021/09/21 08:27:33;;;;;;;15.63;10.05;;;10.60;99.90;;;;;;5094405;28;20027;-77
2021/09/21 08:29:59;;;;;;;14.38;9.07;;;10.70;99.90;;;;;;5093183;28;20028;-76
2021/09/21 08:32:27;;;;;;;15.65;9.38;;;10.80;99.90;;;;;;5094344;28;20027;-77
2021/09/21 08:34:53;;;;;;;13.60;8.80;;;11.00;99.90;;;;;;5093470;28;20073;-76
2021/09/21 08:37:18;;;;;;;15.95;9.05;;;11.10;99.90;;;;;;5095602;28;20024;-76
2021/09/21 08:39:44;;;;;;;13.27;8.07;;;11.20;99.90;;;;;;5094767;28;20024;-76
2021/09/21 08:42:10;;;;;;;12.52;7.75;;;11.30;99.90;;;;;;5093895;28;20032;-76
2021/09/21 08:44:37;;;;;;;11.65;7.55;;;11.50;99.90;;;;;;5093307;28;20012;-77
2021/09/21 08:47:04;;;;;;;13.07;8.48;;;11.60;99.90;;;;;;5094049;28;20405;-77
2021/09/21 08:49:30;;;;;;;10.75;6.43;;;11.80;99.90;;;;;;5094511;28;20470;-76
2021/09/21 08:51:56;;;;;;;12.88;5.75;;;12.10;99.90;;;;;;5094035;28;20020;-77
2021/09/21 08:54:22;;;;;;;10.57;6.05;;;12.20;99.90;;;;;;5093105;28;20405;-77
2021/09/21 08:56:48;;;;;;;8.57;6.18;;;12.20;99.90;;;;;;5095320;28;20032;-77
2021/09/21 08:59:15;;;;;;;9.70;5.97;;;12.20;99.90;;;;;;5094317;28;20032;-77
2021/09/21 09:01:49;;;;;;;9.77;6.80;;;12.30;99.90;;;;;;5095030;28;20051;-77
2021/09/21 09:04:16;;;;;;;7.40;5.65;;;12.30;99.90;;;;;;5093524;28;20051;-76
2021/09/21 09:06:48;;;;;;;6.78;5.28;;;12.40;99.00;;;;;;5094973;28;20477;-77
2021/09/21 09:09:17;;;;;;;7.50;5.38;;;12.50;99.90;;;;;;5091689;28;20020;-76
2021/09/21 09:11:47;;;;;;;7.32;5.65;;;12.40;99.80;;;;;;5094889;28;20016;-77
2021/09/21 09:14:23;;;;;;;10.35;6.38;;;12.20;97.00;;;;;;5092686;28;20031;-77
2021/09/21 09:16:58;;;;;;;8.80;5.60;;;12.10;98.30;;;;;;5094826;28;20390;-77
2021/09/21 09:19:42;;;;;;;6.10;4.57;;;12.20;98.40;;;;;;5092651;28;20031;-77
2021/09/21 09:22:14;;;;;;;5.10;4.20;;;12.20;97.30;;;;;;5094499;28;20035;-77
2021/09/21 09:24:49;;;;;;;7.95;4.68;;;12.10;91.60;;;;;;5092497;28;20024;-77
2021/09/21 09:27:16;;;;;;;8.20;5.60;;;12.20;94.50;;;;;;5094520;28;20035;-77
2021/09/21 09:29:57;;;;;;;5.43;4.63;;;12.30;97.50;;;;;;5093643;28;20466;-77
2021/09/21 09:32:22;;;;;;;6.70;4.15;;;12.30;92.90;;;;;;5094487;28;20028;-77
2021/09/21 09:34:48;;;;;;;5.72;4.15;;;12.40;92.60;;;;;;5092368;28;20024;-77
2021/09/21 09:37:14;;;;;;;8.52;4.35;;;12.60;93.20;;;;;;5093020;28;20512;-77
2021/09/21 09:39:41;;;;;;;4.75;3.58;;;12.60;90.20;;;;;;5093585;28;20016;-77
2021/09/21 09:42:08;;;;;;;4.95;4.40;;;12.70;85.80;;;;;;5094256;28;20039;-77
2021/09/21 09:44:36;;;;;;;6.10;3.00;;;12.80;87.00;;;;;;5093452;28;20027;-76
2021/09/21 09:47:04;;;;;;;4.00;3.15;;;13.00;86.20;;;;;;5092631;28;20050;-77
2021/09/21 09:49:34;;;;;;;4.60;3.30;;;13.20;82.20;;;;;;5091040;28;20418;-77
2021/09/21 09:52:18;;;;;;;4.07;2.70;;;12.90;77.60;;;;;;5091968;28;20090;-77
2021/09/21 09:54:46;;;;;;;4.97;3.30;;;12.80;80.10;;;;;;5091878;28;20346;-76
2021/09/21 09:57:14;;;;;;;3.10;2.80;;;12.70;82.50;;;;;;5092574;28;20024;-77
2021/09/21 09:59:41;;;;;;;5.68;2.95;;;12.80;81.20;;;;;;5093392;28;20028;-76
2021/09/21 10:02:07;;;;;;;5.00;3.22;;;12.80;83.60;;;;;;5092494;28;20127;-77
2021/09/21 10:04:33;;;;;;;5.03;3.35;;;13.00;79.00;;;;;;5091807;28;20047;-76
2021/09/21 10:06:59;;;;;;;4.93;3.95;;;13.00;77.40;;;;;;5091556;28;20048;-76
2021/09/21 10:09:25;;;;;;;7.25;3.15;;;13.00;76.70;;;;;;5090105;28;20036;-76
2021/09/21 10:11:54;;;;;;;4.13;2.65;;;12.80;75.40;;;;;;5089342;28;20024;-77
2021/09/21 10:14:22;;;;;;;4.82;3.47;;;12.80;77.30;;;;;;5089878;28;20032;-77
2021/09/21 10:16:59;;;;;;;4.32;3.35;;;12.60;81.30;;;;;;5091573;28;20016;-76
2021/09/21 10:19:26;;;;;;;6.35;3.25;;;12.80;83.40;;;;;;5087287;28;20054;-77
2021/09/21 10:21:53;;;;;;;4.70;3.15;;;12.70;80.10;;;;;;5084168;28;20087;-77
2021/09/21 10:24:32;;;;;;;6.13;3.50;;;12.60;79.30;;;;;;5087289;28;20101;-77
2021/09/21 10:27:03;;;;;;;4.78;3.10;;;12.50;83.20;;;;;;5089586;28;20032;-77
2021/09/21 10:29:30;;;;;;;4.88;2.60;;;12.70;84.20;;;;;;5087311;28;20020;-77
2021/09/21 10:31:57;;;;;;;3.92;3.45;;;12.80;79.00;;;;;;5090270;28;20032;-77
2021/09/21 10:34:23;;;;;;;3.28;2.85;;;12.80;79.10;;;;;;5088497;28;20028;-78
2021/09/21 10:36:54;;;;;;;3.90;3.28;;;12.80;80.20;;;;;;5089650;28;21143;-77
2021/09/21 10:39:23;;;;;;;4.40;2.80;;;12.70;79.60;;;;;;5089975;28;20028;-77
2021/09/21 10:42:04;;;;;;;3.67;2.83;;;12.50;78.60;;;;;;5072170;28;20056;-76
2021/09/21 10:44:31;;;;;;;2.55;2.35;;;12.50;79.60;;;;;;5089071;28;20028;-77
2021/09/21 10:47:03;;;;;;;4.20;2.90;;;12.30;78.70;;;;;;5090295;28;20020;-77
2021/09/21 10:49:36;;;;;;;5.95;2.97;;;12.50;80.00;;;;;;5090250;28;20024;-77
2021/09/21 10:52:05;;;;;;;5.97;3.10;;;12.70;79.40;;;;;;5089956;28;20519;-77
2021/09/21 10:54:34;;;;;;;3.50;2.55;;;12.80;77.90;;;;;;5088923;28;20446;-78
2021/09/21 10:57:05;;;;;;;3.78;3.05;;;12.80;78.60;;;;;;5091284;28;20376;-78
2021/09/21 10:59:31;;;;;;;3.75;2.50;;;12.80;80.40;;;;;;5086549;28;20031;-78
2021/09/21 11:01:57;;;;;;;4.40;2.95;;;12.60;83.50;;;;;;5086844;28;20054;-77
2021/09/21 11:04:25;;;;;;;4.78;3.50;;;12.50;84.00;;;;;;5088221;28;20028;-78
2021/09/21 11:06:51;;;;;;;7.63;3.38;;;12.50;86.60;;;;;;5083862;28;20028;-75
2021/09/21 11:09:24;;;;;;;6.68;3.33;;;12.50;86.40;;;;;;5087487;28;20042;-75
2021/09/21 11:11:50;;;;;;;6.60;3.97;;;12.70;85.80;;;;;;5086845;28;20031;-76
2021/09/21 11:14:20;;;;;;;4.05;2.70;;;12.90;83.80;;;;;;5087489;28;20074;-77
2021/09/21 11:16:52;;;;;;;4.03;2.55;;;13.00;83.00;;;;;;5082364;28;20466;-77
2021/09/21 11:19:18;;;;;;;4.07;3.22;;;13.20;81.60;;;;;;5087222;28;20385;-76
2021/09/21 11:21:44;;;;;;;3.42;2.83;;;13.10;78.50;;;;;;5090066;28;20039;-76
2021/09/21 11:24:10;;;;;;;5.05;3.25;;;12.90;80.20;;;;;;5089475;28;20168;-77
2021/09/21 11:26:37;;;;;;;3.65;3.28;;;12.90;80.30;;;;;;5088647;28;20493;-75
2021/09/21 11:29:15;;;;;;;4.45;3.20;;;12.70;78.90;;;;;;5089131;28;20123;-77
2021/09/21 11:31:41;;;;;;;5.82;3.20;;;12.80;83.30;;;;;;5090957;28;20497;-76
2021/09/21 11:34:10;;;;;;;4.50;2.85;;;12.90;82.60;;;;;;5093562;28;20028;-77
2021/09/21 11:36:38;;;;;;;5.82;3.20;;;13.00;85.10;;;;;;5094044;28;20534;-76
2021/09/21 11:39:04;;;;;;;4.18;3.15;;;13.00;87.20;;;;;;5091526;28;20047;-76
2021/09/21 11:41:30;;;;;;;5.22;3.03;;;13.10;87.50;;;;;;5091999;28;20032;-77
2021/09/21 11:44:00;;;;;;;3.50;3.20;;;13.10;84.40;;;;;;5094020;28;20046;-77
2021/09/21 11:46:31;;;;;;;3.95;2.97;;;13.40;86.40;;;;;;5089921;28;20095;-76
2021/09/21 11:48:59;;;;;;;5.60;3.72;;;13.60;84.20;;;;;;5089794;28;20613;-77
2021/09/21 11:51:25;;;;;;;4.43;2.78;;;13.60;81.10;;;;;;5093545;28;20366;-76
2021/09/21 11:53:54;;;;;;;4.47;2.75;;;13.30;75.20;;;;;;5091288;28;20032;-77
2021/09/21 11:56:21;;;;;;;7.95;3.60;;;13.20;76.90;;;;;;5092570;28;20516;-76
2021/09/21 11:58:46;;;;;;;6.07;3.95;;;13.30;78.30;;;;;;5091243;28;20031;-77
2021/09/21 12:01:12;;;;;;;5.30;3.65;;;13.30;80.90;;;;;;5092756;28;20031;-78
2021/09/21 12:03:38;;;;;;;5.35;3.22;;;13.30;80.90;;;;;;5089012;28;20470;-78
2021/09/21 12:06:05;;;;;;;4.97;2.97;;;13.20;79.50;;;;;;5092332;28;20024;-77
2021/09/21 12:08:33;;;;;;;3.85;3.15;;;13.10;79.60;;;;;;5092764;28;20028;-78
2021/09/21 12:11:09;;;;;;;5.50;3.35;;;13.20;80.40;;;;;;5093118;28;20077;-78
2021/09/21 12:13:35;;;;;;;4.38;3.08;;;13.20;80.00;;;;;;5092806;28;20039;-76
2021/09/21 12:16:04;;;;;;;4.43;3.00;;;13.20;81.30;;;;;;5092369;28;20016;-77
2021/09/21 12:18:32;;;;;;;4.72;3.17;;;13.20;79.50;;;;;;5088159;28;20036;-77
2021/09/21 12:21:01;;;;;;;3.33;2.90;;;13.30;77.20;;;;;;5073685;28;20040;-78
2021/09/21 12:23:30;;;;;;;6.35;4.47;;;13.60;78.80;;;;;;5092052;28;20021;-77
2021/09/21 12:25:57;;;;;;;6.63;3.08;;;13.70;79.20;;;;;;5094020;28;20089;-78
2021/09/21 12:28:37;;;;;;;5.10;2.85;;;13.70;78.30;;;;;;5093112;28;20162;-78
2021/09/21 12:31:30;;;;;;;3.40;2.70;;;13.70;76.00;;;;;;5088241;28;20028;-78
2021/09/21 12:33:58;;;;;;;6.15;3.40;;;13.60;78.70;;;;;;5071421;28;20044;-78
2021/09/21 12:36:29;;;;;;;5.78;3.47;;;13.60;76.70;;;;;;5072278;28;20035;-77
2021/09/21 12:38:59;;;;;;;5.30;3.30;;;13.80;79.10;;;;;;5085217;28;20032;-78
2021/09/21 12:41:26;;;;;;;4.82;2.85;;;13.80;74.00;;;;;;5093729;28;20040;-77
2021/09/21 12:44:06;;;;;;;4.00;2.70;;;13.90;74.90;;;;;;5084851;28;20066;-77
2021/09/21 12:46:33;;;;;;;3.42;3.03;;;14.20;76.10;;;;;;5089244;28;20016;-79
2021/09/21 12:48:59;;;;;;;3.50;2.20;;;14.20;69.50;;;;;;5082141;28;20035;-80
2021/09/21 12:51:41;;;;;;;5.60;2.60;;;14.30;67.50;;;;;;5075096;28;20012;-79